Time;durP1;ratioP1;P1;durP2;ratioP2;P2;SDS_P1;SDS_P2;PMS_P1;PMS_P2;Temp;Humidity;BMP_temperature;BMP_pressure;BME280_temperature;BME280_humidity;BME280_pressure;Samples;Min_cycle;Max_cycle;Signal;HPM_P1;HPM_P2
2022/09/28 00:01:09;;;;;;;;;;;21.30;41.50;;;;;;485313;245;1282;-51
2022/09/28 00:03:11;;;;;;;;;;;21.30;41.40;;;;;;485081;245;1193;-51
2022/09/28 00:05:12;;;;;;;;;;;21.30;41.40;;;;;;485399;245;1194;-51
2022/09/28 00:07:13;;;;;;;;;;;21.30;41.40;;;;;;485288;245;1570;-50
2022/09/28 00:09:14;;;;;;;;;;;21.30;41.30;;;;;;485734;245;1210;-50
2022/09/28 00:11:16;;;;;;;;;;;21.30;41.30;;;;;;485309;245;1270;-51
2022/09/28 00:13:17;;;;;;;;;;;21.30;41.30;;;;;;485287;245;1163;-51
2022/09/28 00:15:18;;;;;;;;;;;21.30;41.20;;;;;;484763;246;1479;-51
2022/09/28 00:17:21;;;;;;;;;;;21.30;41.20;;;;;;503659;237;2171;-52
2022/09/28 00:19:21;;;;;;;;;;;21.30;41.20;;;;;;503498;237;2403;-51
2022/09/28 00:21:22;;;;;;;;;;;21.30;41.20;;;;;;503813;237;1245;-52
2022/09/28 00:23:24;;;;;;;;;;;21.30;41.10;;;;;;504068;237;1307;-51
2022/09/28 00:25:26;;;;;;;;;;;21.30;41.10;;;;;;480846;247;1250;-51
2022/09/28 00:27:26;;;;;;;;;;;21.30;41.00;;;;;;489042;244;2237;-51
2022/09/28 00:29:28;;;;;;;;;;;21.40;41.00;;;;;;480402;248;1273;-52
2022/09/28 00:31:30;;;;;;;;;;;21.40;41.00;;;;;;485717;246;1254;-51
2022/09/28 00:33:31;;;;;;;;;;;21.40;41.00;;;;;;485374;245;2112;-51
2022/09/28 00:35:32;;;;;;;;;;;21.40;40.90;;;;;;485395;245;1305;-51
2022/09/28 00:37:33;;;;;;;;;;;21.30;40.90;;;;;;485376;245;2148;-51
2022/09/28 00:39:36;;;;;;;;;;;21.30;40.80;;;;;;485759;245;1195;-51
2022/09/28 00:41:36;;;;;;;;;;;21.30;40.80;;;;;;485718;245;2122;-51
2022/09/28 00:43:37;;;;;;;;;;;21.30;40.80;;;;;;485769;245;1089;-51
2022/09/28 00:45:39;;;;;;;;;;;21.30;40.80;;;;;;485405;245;1045;-51
2022/09/28 00:47:40;;;;;;;;;;;21.40;40.80;;;;;;485790;245;1120;-50
2022/09/28 00:49:42;;;;;;;;;;;21.40;40.80;;;;;;485661;245;1242;-51
2022/09/28 00:51:43;;;;;;;;;;;21.30;40.70;;;;;;485340;245;1184;-51
2022/09/28 00:53:44;;;;;;;;;;;21.30;40.70;;;;;;485362;245;1085;-52
2022/09/28 00:55:45;;;;;;;;;;;21.40;40.60;;;;;;485315;245;1251;-51
2022/09/28 00:57:47;;;;;;;;;;;21.30;40.60;;;;;;485773;245;2191;-51
2022/09/28 00:59:48;;;;;;;;;;;21.30;40.60;;;;;;485713;245;1195;-51
2022/09/28 01:01:49;;;;;;;;;;;21.30;40.60;;;;;;485470;245;1258;-51
2022/09/28 01:03:51;;;;;;;;;;;21.30;40.50;;;;;;485267;245;1266;-51
2022/09/28 01:05:52;;;;;;;;;;;21.30;40.50;;;;;;485408;245;1214;-51
2022/09/28 01:07:53;;;;;;;;;;;21.30;40.50;;;;;;485748;245;1282;-51
2022/09/28 01:09:55;;;;;;;;;;;21.30;40.50;;;;;;485584;245;1307;-51
2022/09/28 01:11:56;;;;;;;;;;;21.30;40.50;;;;;;485400;245;1682;-51
2022/09/28 01:13:57;;;;;;;;;;;21.30;40.60;;;;;;485572;245;1287;-52
2022/09/28 01:15:59;;;;;;;;;;;21.30;40.60;;;;;;485260;245;1320;-52
2022/09/28 01:18:00;;;;;;;;;;;21.30;40.50;;;;;;485307;245;2141;-51
2022/09/28 01:20:04;;;;;;;;;;;21.30;40.50;;;;;;485659;245;1214;-52
2022/09/28 01:22:03;;;;;;;;;;;21.30;40.50;;;;;;485171;245;2277;-52
2022/09/28 01:24:04;;;;;;;;;;;21.30;40.40;;;;;;485754;245;1234;-51
2022/09/28 01:26:05;;;;;;;;;;;21.30;40.40;;;;;;485753;245;1167;-50
2022/09/28 01:28:07;;;;;;;;;;;21.30;40.40;;;;;;485745;245;1224;-51
2022/09/28 01:30:08;;;;;;;;;;;21.30;40.30;;;;;;485740;245;1220;-51
2022/09/28 01:32:09;;;;;;;;;;;21.30;40.20;;;;;;485706;245;1324;-51
2022/09/28 01:34:11;;;;;;;;;;;21.30;40.30;;;;;;485059;245;1197;-51
2022/09/28 01:36:12;;;;;;;;;;;21.40;40.30;;;;;;485043;245;1335;-51
2022/09/28 01:38:14;;;;;;;;;;;21.30;40.20;;;;;;485201;245;2203;-51
2022/09/28 01:40:15;;;;;;;;;;;21.30;40.20;;;;;;485250;245;1658;-51
2022/09/28 01:42:16;;;;;;;;;;;21.40;40.20;;;;;;485542;245;1366;-51
2022/09/28 01:44:17;;;;;;;;;;;21.40;40.10;;;;;;485478;245;1192;-51
2022/09/28 01:46:19;;;;;;;;;;;21.40;40.10;;;;;;485341;245;1404;-51
2022/09/28 01:48:20;;;;;;;;;;;21.40;40.10;;;;;;485371;245;1383;-51
2022/09/28 01:50:22;;;;;;;;;;;21.30;40.10;;;;;;485533;245;1261;-51
2022/09/28 01:52:23;;;;;;;;;;;21.30;40.10;;;;;;485208;245;1329;-51
2022/09/28 01:54:27;;;;;;;;;;;21.30;40.00;;;;;;485641;245;1275;-52
2022/09/28 01:56:28;;;;;;;;;;;21.30;40.00;;;;;;485602;245;1327;-51
2022/09/28 01:58:30;;;;;;;;;;;21.30;40.00;;;;;;485437;245;2195;-51
2022/09/28 02:00:31;;;;;;;;;;;21.40;40.00;;;;;;485076;245;1462;-51
2022/09/28 02:02:32;;;;;;;;;;;21.30;39.90;;;;;;485041;245;1339;-52
2022/09/28 02:04:34;;;;;;;;;;;21.30;40.00;;;;;;485084;245;1390;-51
2022/09/28 02:06:36;;;;;;;;;;;21.30;39.90;;;;;;485143;245;1231;-51
2022/09/28 02:08:37;;;;;;;;;;;21.30;39.90;;;;;;485105;245;1979;-51
2022/09/28 02:10:38;;;;;;;;;;;21.40;39.90;;;;;;485089;245;1323;-51
2022/09/28 02:12:39;;;;;;;;;;;21.30;39.80;;;;;;485221;245;1560;-51
2022/09/28 02:14:41;;;;;;;;;;;21.30;39.80;;;;;;485285;245;1320;-52
2022/09/28 02:16:42;;;;;;;;;;;21.30;39.70;;;;;;485220;245;1340;-51
2022/09/28 02:18:43;;;;;;;;;;;21.40;39.80;;;;;;485205;245;2168;-52
2022/09/28 02:20:46;;;;;;;;;;;21.30;39.70;;;;;;485208;245;1302;-51
2022/09/28 02:22:46;;;;;;;;;;;21.30;39.80;;;;;;485479;245;1817;-51
2022/09/28 02:24:47;;;;;;;;;;;21.30;39.90;;;;;;485535;245;1261;-52
2022/09/28 02:26:49;;;;;;;;;;;21.30;39.90;;;;;;485316;245;1229;-52
2022/09/28 02:28:50;;;;;;;;;;;21.30;40.00;;;;;;485627;245;1218;-51
2022/09/28 02:30:51;;;;;;;;;;;21.30;39.90;;;;;;485273;245;1199;-51
2022/09/28 02:32:53;;;;;;;;;;;21.40;39.90;;;;;;485526;245;1350;-51
2022/09/28 02:34:54;;;;;;;;;;;21.30;39.80;;;;;;485225;245;1676;-51
2022/09/28 02:36:55;;;;;;;;;;;21.30;39.80;;;;;;485426;245;1262;-52
2022/09/28 02:38:57;;;;;;;;;;;21.30;39.80;;;;;;485756;245;2167;-51
2022/09/28 02:40:58;;;;;;;;;;;21.30;39.70;;;;;;485315;245;1218;-51
2022/09/28 02:42:59;;;;;;;;;;;21.30;39.70;;;;;;485757;245;1225;-50
2022/09/28 02:45:01;;;;;;;;;;;21.30;39.70;;;;;;485585;245;1251;-52
2022/09/28 02:47:02;;;;;;;;;;;21.30;39.60;;;;;;485758;245;1300;-51
2022/09/28 02:49:04;;;;;;;;;;;21.30;39.70;;;;;;485334;245;1488;-50
2022/09/28 02:51:05;;;;;;;;;;;21.30;39.60;;;;;;485363;245;1223;-51
2022/09/28 02:53:06;;;;;;;;;;;21.30;39.60;;;;;;485314;245;1195;-51
2022/09/28 02:55:08;;;;;;;;;;;21.30;39.60;;;;;;485706;245;1240;-51
2022/09/28 02:57:09;;;;;;;;;;;21.30;39.60;;;;;;485339;245;1250;-51
2022/09/28 02:59:11;;;;;;;;;;;21.30;39.60;;;;;;485635;243;2200;-52
2022/09/28 03:01:12;;;;;;;;;;;21.30;39.50;;;;;;485778;245;1181;-51
2022/09/28 03:03:13;;;;;;;;;;;21.40;39.60;;;;;;485286;245;1076;-52
2022/09/28 03:05:15;;;;;;;;;;;21.30;39.50;;;;;;485322;245;1123;-51
2022/09/28 03:07:16;;;;;;;;;;;21.30;39.40;;;;;;485332;245;1113;-51
2022/09/28 03:09:17;;;;;;;;;;;21.30;39.50;;;;;;485773;245;1106;-51
2022/09/28 03:11:19;;;;;;;;;;;21.30;39.40;;;;;;485788;245;1119;-51
2022/09/28 03:13:20;;;;;;;;;;;21.30;39.40;;;;;;485736;245;1274;-51
2022/09/28 03:15:21;;;;;;;;;;;21.40;39.50;;;;;;485633;245;1276;-51
2022/09/28 03:17:23;;;;;;;;;;;21.40;39.40;;;;;;485769;245;1256;-51
2022/09/28 03:19:24;;;;;;;;;;;21.30;39.40;;;;;;485743;245;2145;-51
2022/09/28 03:21:25;;;;;;;;;;;21.30;39.40;;;;;;485600;245;1181;-52
2022/09/28 03:23:27;;;;;;;;;;;21.30;39.40;;;;;;485763;245;1184;-51
2022/09/28 03:25:28;;;;;;;;;;;21.40;39.50;;;;;;485304;245;1232;-51
2022/09/28 03:27:29;;;;;;;;;;;21.30;39.30;;;;;;485772;245;1198;-51
2022/09/28 03:29:31;;;;;;;;;;;21.30;39.30;;;;;;485299;245;1518;-51
2022/09/28 03:31:32;;;;;;;;;;;21.40;39.40;;;;;;485434;245;2023;-51
2022/09/28 03:33:33;;;;;;;;;;;21.30;39.30;;;;;;485345;245;1377;-51
2022/09/28 03:35:34;;;;;;;;;;;21.30;39.30;;;;;;485657;245;1468;-51
2022/09/28 03:37:36;;;;;;;;;;;21.30;39.40;;;;;;485333;245;1229;-52
2022/09/28 03:39:38;;;;;;;;;;;21.30;39.40;;;;;;485734;245;2219;-51
2022/09/28 03:41:38;;;;;;;;;;;21.40;39.40;;;;;;485298;245;2406;-51
2022/09/28 03:43:40;;;;;;;;;;;21.40;39.40;;;;;;485450;245;1111;-51
2022/09/28 03:45:41;;;;;;;;;;;21.40;39.30;;;;;;485331;245;1278;-51
2022/09/28 03:47:42;;;;;;;;;;;21.30;39.20;;;;;;485665;245;1105;-51
2022/09/28 03:49:45;;;;;;;;;;;21.40;39.30;;;;;;485298;245;1213;-51
2022/09/28 03:51:46;;;;;;;;;;;21.40;39.30;;;;;;485772;245;1253;-51
2022/09/28 03:53:47;;;;;;;;;;;21.30;39.50;;;;;;485288;245;1352;-51
2022/09/28 03:55:49;;;;;;;;;;;21.30;39.60;;;;;;485309;245;1182;-51
2022/09/28 03:57:50;;;;;;;;;;;21.30;39.80;;;;;;485256;246;2327;-51
2022/09/28 03:59:51;;;;;;;;;;;21.30;39.80;;;;;;485255;245;2132;-52
2022/09/28 04:01:52;;;;;;;;;;;21.30;39.90;;;;;;485702;245;1320;-51
2022/09/28 04:03:54;;;;;;;;;;;21.30;40.00;;;;;;485174;245;1227;-51
2022/09/28 04:05:55;;;;;;;;;;;21.30;40.10;;;;;;485709;245;1207;-51
2022/09/28 04:07:57;;;;;;;;;;;21.30;40.10;;;;;;485206;245;1529;-51
2022/09/28 04:09:58;;;;;;;;;;;21.30;40.20;;;;;;485742;245;1321;-51
2022/09/28 04:11:59;;;;;;;;;;;21.30;40.30;;;;;;485713;245;1320;-51
2022/09/28 04:14:01;;;;;;;;;;;21.30;40.30;;;;;;485681;245;1292;-51
2022/09/28 04:16:03;;;;;;;;;;;21.30;40.30;;;;;;485271;245;1247;-51
2022/09/28 04:18:04;;;;;;;;;;;21.30;40.40;;;;;;485218;246;2203;-51
2022/09/28 04:20:06;;;;;;;;;;;21.30;40.40;;;;;;485721;245;1274;-51
2022/09/28 04:22:07;;;;;;;;;;;21.30;40.50;;;;;;485477;245;1213;-51
2022/09/28 04:24:08;;;;;;;;;;;21.30;40.50;;;;;;485282;245;2162;-51
2022/09/28 04:26:09;;;;;;;;;;;21.30;40.40;;;;;;485732;245;1297;-51
2022/09/28 04:30:30;;;;;;;;;;;21.20;40.50;;;;;;485658;246;1225;-51
2022/09/28 04:32:31;;;;;;;;;;;21.30;40.50;;;;;;485637;245;1257;-51
2022/09/28 04:34:33;;;;;;;;;;;21.30;40.50;;;;;;485303;245;1147;-51
2022/09/28 04:36:34;;;;;;;;;;;21.30;40.60;;;;;;485237;245;1553;-51
2022/09/28 04:38:35;;;;;;;;;;;21.30;40.60;;;;;;485410;245;2195;-51
2022/09/28 04:40:36;;;;;;;;;;;21.30;40.60;;;;;;485306;245;1093;-51
2022/09/28 04:42:38;;;;;;;;;;;21.20;40.70;;;;;;485562;245;1240;-50
2022/09/28 04:44:39;;;;;;;;;;;21.30;40.70;;;;;;485494;245;1064;-51
2022/09/28 04:46:40;;;;;;;;;;;21.20;40.70;;;;;;485743;245;1182;-52
2022/09/28 04:48:42;;;;;;;;;;;21.20;40.70;;;;;;485257;245;1049;-51
2022/09/28 04:50:43;;;;;;;;;;;21.20;40.70;;;;;;485670;245;1147;-51
2022/09/28 04:52:44;;;;;;;;;;;21.30;40.80;;;;;;485021;245;1066;-52
2022/09/28 04:54:46;;;;;;;;;;;21.20;40.80;;;;;;485188;245;1163;-52
2022/09/28 04:56:47;;;;;;;;;;;21.30;40.80;;;;;;485266;245;1209;-51
2022/09/28 04:58:48;;;;;;;;;;;21.30;40.80;;;;;;485249;245;2148;-51
2022/09/28 05:00:50;;;;;;;;;;;21.20;40.80;;;;;;485564;245;1281;-51
2022/09/28 05:02:52;;;;;;;;;;;21.20;40.90;;;;;;485523;245;1237;-51
2022/09/28 05:04:54;;;;;;;;;;;21.20;40.90;;;;;;485116;245;1199;-51
2022/09/28 05:06:55;;;;;;;;;;;21.20;40.90;;;;;;485163;245;1190;-52
2022/09/28 05:08:56;;;;;;;;;;;21.20;40.90;;;;;;485471;245;1235;-52
2022/09/28 05:10:58;;;;;;;;;;;21.20;40.90;;;;;;485721;245;1285;-51
2022/09/28 05:12:59;;;;;;;;;;;21.20;41.00;;;;;;485288;245;1227;-52
2022/09/28 05:15:01;;;;;;;;;;;21.20;40.90;;;;;;485672;245;1276;-52
2022/09/28 05:17:02;;;;;;;;;;;21.20;40.90;;;;;;485534;245;1161;-51
2022/09/28 05:19:05;;;;;;;;;;;21.20;41.00;;;;;;485426;245;2156;-51
2022/09/28 05:21:05;;;;;;;;;;;21.20;41.00;;;;;;485478;246;1692;-51
2022/09/28 05:23:06;;;;;;;;;;;21.20;41.00;;;;;;485402;245;1238;-52
2022/09/28 05:25:07;;;;;;;;;;;21.20;41.00;;;;;;485270;245;1327;-51
2022/09/28 05:27:09;;;;;;;;;;;21.20;41.00;;;;;;485467;245;1249;-51
2022/09/28 05:29:10;;;;;;;;;;;21.20;41.00;;;;;;485551;245;1280;-51
2022/09/28 05:31:11;;;;;;;;;;;21.20;41.00;;;;;;485199;245;1241;-51
2022/09/28 05:33:13;;;;;;;;;;;21.20;41.10;;;;;;484970;245;1205;-51
2022/09/28 05:35:14;;;;;;;;;;;21.20;41.10;;;;;;485718;245;1307;-51
2022/09/28 05:37:15;;;;;;;;;;;21.20;41.10;;;;;;485651;245;1396;-51
2022/09/28 05:39:17;;;;;;;;;;;21.20;41.20;;;;;;485229;245;2199;-51
2022/09/28 05:41:18;;;;;;;;;;;21.20;41.10;;;;;;485595;245;1265;-51
2022/09/28 05:43:19;;;;;;;;;;;21.20;41.20;;;;;;485670;245;1201;-51
2022/09/28 05:45:21;;;;;;;;;;;21.20;41.20;;;;;;485264;245;1228;-52
2022/09/28 05:47:22;;;;;;;;;;;21.20;41.20;;;;;;485668;245;1213;-51
2022/09/28 05:49:23;;;;;;;;;;;21.20;41.30;;;;;;485184;245;1223;-50
2022/09/28 05:51:25;;;;;;;;;;;21.20;41.20;;;;;;485408;245;1263;-51
2022/09/28 05:53:26;;;;;;;;;;;21.20;41.20;;;;;;485661;245;1313;-51
2022/09/28 05:55:28;;;;;;;;;;;21.20;41.30;;;;;;485224;245;1283;-50
2022/09/28 05:57:29;;;;;;;;;;;21.20;41.30;;;;;;485373;245;1259;-51
2022/09/28 05:59:30;;;;;;;;;;;21.20;41.30;;;;;;485145;245;2164;-52
2022/09/28 06:01:32;;;;;;;;;;;21.20;41.30;;;;;;485064;245;1152;-51
2022/09/28 06:03:33;;;;;;;;;;;21.20;41.30;;;;;;485006;245;1302;-50
2022/09/28 06:05:34;;;;;;;;;;;21.20;41.30;;;;;;485385;245;1235;-51
2022/09/28 06:07:36;;;;;;;;;;;21.20;41.30;;;;;;485172;245;1301;-51
2022/09/28 06:09:37;;;;;;;;;;;21.20;41.30;;;;;;485173;245;1264;-51
2022/09/28 06:11:38;;;;;;;;;;;21.20;41.40;;;;;;485364;246;1258;-51
2022/09/28 06:13:40;;;;;;;;;;;21.20;41.30;;;;;;485465;245;1195;-51
2022/09/28 06:15:41;;;;;;;;;;;21.20;41.40;;;;;;485102;245;1233;-52
2022/09/28 06:17:42;;;;;;;;;;;21.20;41.40;;;;;;485039;245;1251;-51
2022/09/28 06:19:44;;;;;;;;;;;21.20;41.40;;;;;;485317;245;2199;-50
2022/09/28 06:21:45;;;;;;;;;;;21.20;41.40;;;;;;485146;245;1195;-50
2022/09/28 06:23:46;;;;;;;;;;;21.20;41.40;;;;;;484874;245;1210;-50
2022/09/28 06:25:47;;;;;;;;;;;21.20;41.40;;;;;;485192;245;1223;-51
2022/09/28 06:27:49;;;;;;;;;;;21.20;41.50;;;;;;484834;245;1142;-53
2022/09/28 06:29:50;;;;;;;;;;;21.20;41.50;;;;;;485001;245;1155;-54
2022/09/28 06:31:52;;;;;;;;;;;21.20;41.50;;;;;;485058;245;1266;-53
2022/09/28 06:33:53;;;;;;;;;;;21.20;41.50;;;;;;484852;245;1272;-53
2022/09/28 06:35:54;;;;;;;;;;;21.30;41.40;;;;;;485208;245;1243;-53
2022/09/28 06:37:56;;;;;;;;;;;21.30;41.40;;;;;;484933;245;1302;-53
2022/09/28 06:39:57;;;;;;;;;;;21.30;41.40;;;;;;485009;245;2187;-53
2022/09/28 06:42:02;;;;;;;;;;;21.30;41.50;;;;;;484348;245;1699;-53
2022/09/28 06:44:00;;;;;;;;;;;21.30;41.40;;;;;;483951;246;2329;-54
2022/09/28 06:46:02;;;;;;;;;;;21.30;41.50;;;;;;484190;245;1237;-53
2022/09/28 06:48:03;;;;;;;;;;;21.30;41.50;;;;;;484351;245;1199;-54
2022/09/28 06:50:11;;;;;;;;;;;21.30;41.50;;;;;;484475;245;1256;-53
2022/09/28 06:52:06;;;;;;;;;;;21.30;41.50;;;;;;484164;246;1581;-53
2022/09/28 06:54:07;;;;;;;;;;;21.30;41.50;;;;;;485134;245;1466;-54
2022/09/28 06:56:09;;;;;;;;;;;21.30;41.50;;;;;;484784;245;1122;-53
2022/09/28 06:58:10;;;;;;;;;;;21.30;41.50;;;;;;484799;245;1109;-53
2022/09/28 07:00:11;;;;;;;;;;;21.30;41.60;;;;;;484743;245;2191;-53
2022/09/28 07:02:13;;;;;;;;;;;21.30;41.60;;;;;;485275;245;1397;-53
2022/09/28 07:04:14;;;;;;;;;;;21.30;41.60;;;;;;485241;245;1268;-53
2022/09/28 07:06:17;;;;;;;;;;;21.30;41.60;;;;;;485334;245;1078;-54
2022/09/28 07:08:17;;;;;;;;;;;21.30;41.60;;;;;;484889;245;2163;-53
2022/09/28 07:10:18;;;;;;;;;;;21.30;41.60;;;;;;485140;245;1181;-53
2022/09/28 07:12:20;;;;;;;;;;;21.30;41.70;;;;;;484911;245;1076;-53
2022/09/28 07:14:21;;;;;;;;;;;21.30;41.60;;;;;;485017;245;1168;-53
2022/09/28 07:16:22;;;;;;;;;;;21.30;41.60;;;;;;484545;245;1254;-53
2022/09/28 07:18:24;;;;;;;;;;;21.30;41.70;;;;;;484722;245;1185;-53
2022/09/28 07:20:25;;;;;;;;;;;21.30;41.70;;;;;;484490;245;2191;-53
2022/09/28 07:22:26;;;;;;;;;;;21.30;41.70;;;;;;484520;245;1522;-53
2022/09/28 07:24:28;;;;;;;;;;;21.30;41.70;;;;;;484599;245;1201;-53
2022/09/28 07:26:32;;;;;;;;;;;21.30;41.70;;;;;;484560;245;1497;-52
2022/09/28 07:28:31;;;;;;;;;;;21.30;41.80;;;;;;484403;246;2198;-54
2022/09/28 07:30:32;;;;;;;;;;;21.30;41.80;;;;;;484550;245;1227;-53
2022/09/28 07:32:36;;;;;;;;;;;21.30;41.80;;;;;;484445;245;1174;-54
2022/09/28 07:34:43;;;;;;;;;;;21.30;41.80;;;;;;484503;246;1307;-53
2022/09/28 07:36:37;;;;;;;;;;;21.30;41.80;;;;;;484013;246;2399;-54
2022/09/28 07:38:40;;;;;;;;;;;21.30;41.80;;;;;;484713;245;1298;-53
2022/09/28 07:42:59;;;;;;;;;;;21.30;41.80;;;;;;484606;246;1235;-53
2022/09/28 07:45:00;;;;;;;;;;;21.30;41.90;;;;;;484479;245;1328;-53
2022/09/28 07:47:02;;;;;;;;;;;21.30;41.90;;;;;;484541;245;1186;-54
2022/09/28 07:49:04;;;;;;;;;;;21.30;41.90;;;;;;484705;245;1224;-53
2022/09/28 07:51:05;;;;;;;;;;;21.30;41.90;;;;;;485130;246;1676;-53
2022/09/28 07:53:07;;;;;;;;;;;21.30;41.90;;;;;;484562;245;1275;-53
2022/09/28 07:55:07;;;;;;;;;;;21.30;41.90;;;;;;485328;245;1376;-53
2022/09/28 07:57:09;;;;;;;;;;;21.30;42.00;;;;;;484637;245;1244;-55
2022/09/28 07:59:10;;;;;;;;;;;21.30;42.00;;;;;;484589;245;1229;-53
2022/09/28 08:01:13;;;;;;;;;;;21.30;42.00;;;;;;484585;245;2196;-53
2022/09/28 08:03:14;;;;;;;;;;;21.30;42.00;;;;;;484441;245;1769;-53
2022/09/28 08:05:15;;;;;;;;;;;21.30;42.00;;;;;;484601;245;1248;-53
2022/09/28 08:07:16;;;;;;;;;;;21.30;42.10;;;;;;484654;245;1373;-53
2022/09/28 08:09:17;;;;;;;;;;;21.30;42.10;;;;;;485388;245;1153;-53
2022/09/28 08:11:19;;;;;;;;;;;21.30;42.10;;;;;;484937;245;1285;-54
2022/09/28 08:13:20;;;;;;;;;;;21.30;42.10;;;;;;484485;245;1218;-53
2022/09/28 08:15:21;;;;;;;;;;;21.30;42.10;;;;;;484714;245;1351;-54
2022/09/28 08:17:23;;;;;;;;;;;21.30;42.20;;;;;;484545;245;1180;-53
2022/09/28 08:19:24;;;;;;;;;;;21.30;42.20;;;;;;484533;245;1351;-53
2022/09/28 08:23:45;;;;;;;;;;;21.30;42.20;;;;;;484573;246;1175;-54
2022/09/28 08:25:47;;;;;;;;;;;21.30;42.20;;;;;;484521;245;1379;-53
2022/09/28 08:27:48;;;;;;;;;;;21.30;42.20;;;;;;484714;246;2329;-53
2022/09/28 08:29:48;;;;;;;;;;;21.30;42.20;;;;;;485376;245;1288;-54
2022/09/28 08:31:50;;;;;;;;;;;21.30;42.20;;;;;;485301;245;1102;-54
2022/09/28 08:33:52;;;;;;;;;;;21.30;42.20;;;;;;485356;245;1148;-53
2022/09/28 08:35:52;;;;;;;;;;;21.40;42.30;;;;;;484883;246;1889;-53
2022/09/28 08:37:54;;;;;;;;;;;21.30;42.20;;;;;;485280;245;1085;-55
2022/09/28 08:39:55;;;;;;;;;;;21.40;42.30;;;;;;485373;245;2195;-53
2022/09/28 08:41:57;;;;;;;;;;;21.30;42.30;;;;;;485114;245;1963;-54
2022/09/28 08:43:58;;;;;;;;;;;21.30;42.30;;;;;;484917;245;1123;-53
2022/09/28 08:45:59;;;;;;;;;;;21.30;42.30;;;;;;484617;245;1179;-53
2022/09/28 08:50:20;;;;;;;;;;;21.30;42.30;;;;;;484544;246;1202;-53
2022/09/28 08:52:22;;;;;;;;;;;21.30;42.40;;;;;;484472;245;1136;-53
2022/09/28 08:54:22;;;;;;;;;;;21.30;42.40;;;;;;484495;245;2382;-53
2022/09/28 08:56:24;;;;;;;;;;;21.30;42.40;;;;;;484441;245;1252;-53
2022/09/28 08:58:27;;;;;;;;;;;21.30;42.40;;;;;;484819;245;1172;-53
2022/09/28 09:00:27;;;;;;;;;;;21.30;42.40;;;;;;484784;246;2192;-53
2022/09/28 09:02:28;;;;;;;;;;;21.30;42.40;;;;;;484826;245;1301;-53
2022/09/28 09:04:30;;;;;;;;;;;21.30;42.50;;;;;;485031;245;1252;-53
2022/09/28 09:06:31;;;;;;;;;;;21.30;42.50;;;;;;485275;245;1179;-53
2022/09/28 09:08:32;;;;;;;;;;;21.40;42.50;;;;;;485236;242;1266;-53
2022/09/28 09:10:34;;;;;;;;;;;21.40;42.50;;;;;;485036;245;1168;-53
2022/09/28 09:12:35;;;;;;;;;;;21.30;42.50;;;;;;485140;245;1257;-54
2022/09/28 09:14:37;;;;;;;;;;;21.30;42.50;;;;;;485084;245;1215;-54
2022/09/28 09:16:38;;;;;;;;;;;21.30;42.50;;;;;;485107;245;1205;-53
2022/09/28 09:18:39;;;;;;;;;;;21.30;42.50;;;;;;485249;245;1191;-53
2022/09/28 09:20:41;;;;;;;;;;;21.40;42.60;;;;;;484881;245;2176;-53
2022/09/28 09:22:42;;;;;;;;;;;21.40;42.60;;;;;;485283;245;1197;-53
2022/09/28 09:24:43;;;;;;;;;;;21.30;42.50;;;;;;484921;245;1207;-53
2022/09/28 09:26:45;;;;;;;;;;;21.40;42.60;;;;;;485144;245;1212;-53
2022/09/28 09:28:46;;;;;;;;;;;21.40;42.60;;;;;;484987;245;1636;-54
2022/09/28 09:30:47;;;;;;;;;;;21.40;42.60;;;;;;485089;245;1306;-53
2022/09/28 09:32:49;;;;;;;;;;;21.30;42.60;;;;;;484970;245;1205;-53
2022/09/28 09:34:50;;;;;;;;;;;21.30;42.60;;;;;;484969;245;1280;-53
2022/09/28 09:36:51;;;;;;;;;;;21.30;42.60;;;;;;485071;245;1207;-53
2022/09/28 09:38:53;;;;;;;;;;;21.40;42.70;;;;;;485286;245;1287;-53
2022/09/28 09:40:54;;;;;;;;;;;21.30;42.60;;;;;;484840;245;2194;-53
2022/09/28 09:42:55;;;;;;;;;;;21.30;42.60;;;;;;485051;245;1304;-54
2022/09/28 09:44:56;;;;;;;;;;;21.30;42.60;;;;;;485085;245;1205;-53
2022/09/28 09:46:58;;;;;;;;;;;21.30;42.60;;;;;;485156;245;1243;-53
2022/09/28 09:48:59;;;;;;;;;;;21.40;42.70;;;;;;485188;245;1225;-54
2022/09/28 09:51:01;;;;;;;;;;;21.40;42.70;;;;;;484988;245;1192;-53
2022/09/28 09:53:02;;;;;;;;;;;21.40;42.70;;;;;;485029;245;1258;-53
2022/09/28 09:55:03;;;;;;;;;;;21.40;42.70;;;;;;485136;245;1207;-53
2022/09/28 09:57:04;;;;;;;;;;;21.40;42.70;;;;;;484913;245;1167;-53
2022/09/28 09:59:06;;;;;;;;;;;21.40;42.70;;;;;;484873;245;1423;-53
2022/09/28 10:01:07;;;;;;;;;;;21.30;42.70;;;;;;484926;245;2160;-53
2022/09/28 10:03:08;;;;;;;;;;;21.30;42.70;;;;;;484918;245;1520;-53
2022/09/28 10:05:10;;;;;;;;;;;21.30;42.70;;;;;;484978;245;1236;-54
2022/09/28 10:07:11;;;;;;;;;;;21.40;42.80;;;;;;485245;245;1327;-53
2022/09/28 10:09:12;;;;;;;;;;;21.30;42.80;;;;;;484928;245;1221;-53
2022/09/28 10:11:14;;;;;;;;;;;21.30;42.80;;;;;;485056;245;1220;-54
2022/09/28 10:13:15;;;;;;;;;;;21.30;42.80;;;;;;485043;245;1202;-53
2022/09/28 10:15:16;;;;;;;;;;;21.40;42.80;;;;;;485266;245;1232;-53
2022/09/28 10:17:18;;;;;;;;;;;21.40;42.90;;;;;;485004;245;1247;-54
2022/09/28 10:19:20;;;;;;;;;;;21.40;42.90;;;;;;484916;245;1957;-53
2022/09/28 10:21:20;;;;;;;;;;;21.40;42.80;;;;;;485074;245;2551;-54
2022/09/28 10:23:22;;;;;;;;;;;21.40;42.90;;;;;;485307;245;1183;-53
2022/09/28 10:25:23;;;;;;;;;;;21.30;42.80;;;;;;485028;245;1203;-53
2022/09/28 10:27:25;;;;;;;;;;;21.40;42.90;;;;;;485591;245;1176;-54
2022/09/28 10:29:26;;;;;;;;;;;21.40;42.90;;;;;;485141;245;1223;-53
2022/09/28 10:31:27;;;;;;;;;;;21.30;42.80;;;;;;485272;245;1176;-53
2022/09/28 10:33:29;;;;;;;;;;;21.40;42.90;;;;;;485045;245;1131;-53
2022/09/28 10:35:30;;;;;;;;;;;21.40;43.00;;;;;;485115;245;1159;-54
2022/09/28 10:37:31;;;;;;;;;;;21.30;42.90;;;;;;485153;245;1263;-53
2022/09/28 10:39:33;;;;;;;;;;;21.30;42.90;;;;;;485487;245;1142;-54
2022/09/28 10:41:34;;;;;;;;;;;21.40;43.00;;;;;;485042;245;2148;-54
2022/09/28 10:43:35;;;;;;;;;;;21.40;43.00;;;;;;485180;245;1248;-53
2022/09/28 10:45:36;;;;;;;;;;;21.30;42.90;;;;;;485194;245;1190;-53
2022/09/28 10:47:38;;;;;;;;;;;21.40;43.00;;;;;;484931;245;1289;-53
2022/09/28 10:49:39;;;;;;;;;;;21.40;43.00;;;;;;485041;245;1329;-53
2022/09/28 10:51:41;;;;;;;;;;;21.40;43.00;;;;;;485140;245;1232;-53
2022/09/28 10:53:42;;;;;;;;;;;21.40;43.00;;;;;;485131;245;1183;-53
2022/09/28 10:55:43;;;;;;;;;;;21.40;43.00;;;;;;484809;245;1226;-53
2022/09/28 10:57:44;;;;;;;;;;;21.40;43.00;;;;;;484867;245;1283;-53
2022/09/28 10:59:46;;;;;;;;;;;21.40;43.00;;;;;;484925;245;1320;-54
2022/09/28 11:01:47;;;;;;;;;;;21.40;43.10;;;;;;484950;245;2191;-53
2022/09/28 11:03:49;;;;;;;;;;;21.40;43.00;;;;;;484984;245;1245;-54
2022/09/28 11:05:50;;;;;;;;;;;21.40;43.00;;;;;;485040;245;1155;-54
2022/09/28 11:07:54;;;;;;;;;;;21.40;43.10;;;;;;485114;242;1294;-54
2022/09/28 11:09:53;;;;;;;;;;;21.30;43.00;;;;;;484705;246;2049;-52
2022/09/28 11:11:54;;;;;;;;;;;21.40;43.10;;;;;;485282;245;1163;-53
2022/09/28 11:13:56;;;;;;;;;;;21.40;43.10;;;;;;484951;245;1210;-54
2022/09/28 11:15:57;;;;;;;;;;;21.40;43.00;;;;;;485057;245;1144;-54
2022/09/28 11:17:58;;;;;;;;;;;21.40;43.10;;;;;;484897;245;1177;-53
2022/09/28 11:20:00;;;;;;;;;;;21.40;43.10;;;;;;484711;245;1339;-54
2022/09/28 11:22:01;;;;;;;;;;;21.40;43.10;;;;;;484884;245;2159;-53
2022/09/28 11:24:04;;;;;;;;;;;21.30;43.10;;;;;;484827;245;1405;-54
2022/09/28 11:26:05;;;;;;;;;;;21.30;43.10;;;;;;484777;245;1260;-54
2022/09/28 11:28:07;;;;;;;;;;;21.40;43.20;;;;;;484725;245;1162;-54
2022/09/28 11:30:08;;;;;;;;;;;21.40;43.20;;;;;;484755;245;1290;-54
2022/09/28 11:32:09;;;;;;;;;;;21.40;43.10;;;;;;484683;245;1373;-53
2022/09/28 11:34:11;;;;;;;;;;;21.40;43.10;;;;;;484830;245;1413;-53
2022/09/28 11:36:12;;;;;;;;;;;21.40;43.10;;;;;;484874;245;1199;-53
2022/09/28 11:38:13;;;;;;;;;;;21.40;43.20;;;;;;485148;245;1282;-53
2022/09/28 11:40:15;;;;;;;;;;;21.40;43.10;;;;;;484943;245;1316;-53
2022/09/28 11:42:16;;;;;;;;;;;21.40;43.20;;;;;;484969;245;2112;-53
2022/09/28 11:44:17;;;;;;;;;;;21.40;43.20;;;;;;484714;245;1237;-55
2022/09/28 11:46:19;;;;;;;;;;;21.40;43.20;;;;;;484810;245;1317;-54
2022/09/28 11:48:20;;;;;;;;;;;21.40;43.20;;;;;;485310;245;1231;-54
2022/09/28 11:50:21;;;;;;;;;;;21.40;43.30;;;;;;484968;245;1244;-53
2022/09/28 11:52:23;;;;;;;;;;;21.30;43.20;;;;;;484935;245;1347;-53
2022/09/28 11:54:25;;;;;;;;;;;21.30;43.20;;;;;;484978;245;1226;-53
2022/09/28 11:56:26;;;;;;;;;;;21.30;43.20;;;;;;484855;246;2309;-53
2022/09/28 11:58:27;;;;;;;;;;;21.40;43.30;;;;;;485001;245;1203;-53
2022/09/28 12:00:28;;;;;;;;;;;21.30;43.20;;;;;;484987;245;1200;-54
2022/09/28 12:02:30;;;;;;;;;;;21.30;43.20;;;;;;485043;245;2203;-53
2022/09/28 12:04:31;;;;;;;;;;;21.40;43.30;;;;;;484832;245;1218;-53
2022/09/28 12:06:32;;;;;;;;;;;21.40;43.30;;;;;;485080;245;1461;-53